Time;durP1;ratioP1;P1;durP2;ratioP2;P2;SDS_P1;SDS_P2;PMS_P1;PMS_P2;Temp;Humidity;BMP_temperature;BMP_pressure;BME280_temperature;BME280_humidity;BME280_pressure;Samples;Min_cycle;Max_cycle;Signal;HPM_P1;HPM_P2
2022/01/22 00:01:06;;;;;;;12.93;4.03;;;;;;;;;;5041781;28;20059;-64
2022/01/22 00:03:33;;;;;;;12.88;4.20;;;;;;;;;;5046309;28;20055;-72
2022/01/22 00:05:59;;;;;;;8.05;3.90;;;;;;;;;;5041430;28;20061;-65
2022/01/22 00:08:25;;;;;;;5.25;3.58;;;;;;;;;;5026894;28;20045;-75
2022/01/22 00:10:52;;;;;;;11.45;4.45;;;;;;;;;;5046068;28;20135;-67
2022/01/22 00:15:48;;;;;;;5.72;3.65;;;;;;;;;;5024963;28;20083;-70
2022/01/22 00:18:14;;;;;;;7.25;3.95;;;;;;;;;;5002093;28;20111;-65
2022/01/22 00:20:41;;;;;;;6.68;4.32;;;;;;;;;;5038364;28;20820;-65
2022/01/22 00:23:08;;;;;;;14.52;4.63;;;;;;;;;;5041106;28;20153;-64
2022/01/22 00:25:34;;;;;;;8.43;3.55;;;;;;;;;;5032927;28;20053;-68
2022/01/22 00:28:01;;;;;;;8.25;3.67;;;;;;;;;;5035090;28;20053;-74
2022/01/22 00:30:28;;;;;;;8.93;4.35;;;;;;;;;;5019584;28;20076;-65
2022/01/22 00:32:54;;;;;;;8.27;4.05;;;;;;;;;;5037638;28;20107;-66
2022/01/22 00:35:22;;;;;;;12.52;3.70;;;;;;;;;;5046810;28;20072;-67
2022/01/22 00:37:50;;;;;;;9.68;3.55;;;;;;;;;;5040612;28;20081;-65
2022/01/22 00:40:18;;;;;;;8.57;3.75;;;;;;;;;;5034260;28;20131;-71
2022/01/22 00:42:46;;;;;;;7.90;3.40;;;;;;;;;;5042622;28;20045;-64
2022/01/22 00:45:13;;;;;;;7.78;3.80;;;;;;;;;;5040611;28;20045;-77
2022/01/22 00:47:39;;;;;;;11.50;3.40;;;;;;;;;;5042051;28;20053;-64
2022/01/22 00:50:11;;;;;;;11.02;3.88;;;;;;;;;;5042835;28;20040;-80
2022/01/22 00:52:39;;;;;;;9.98;3.58;;;;;;;;;;5024096;28;20106;-68
2022/01/22 00:55:05;;;;;;;6.15;3.30;;;;;;;;;;5038680;28;20053;-65
2022/01/22 00:57:32;;;;;;;8.68;3.38;;;;;;;;;;5013029;28;20037;-69
2022/01/22 00:59:58;;;;;;;8.13;3.50;;;;;;;;;;5041996;28;20064;-65
2022/01/22 01:02:25;;;;;;;8.38;3.25;;;;;;;;;;5042179;28;20104;-72
2022/01/22 01:04:50;;;;;;;7.32;3.00;;;;;;;;;;5028602;28;20126;-65
2022/01/22 01:07:17;;;;;;;7.10;3.40;;;;;;;;;;5034720;28;20072;-65
2022/01/22 01:09:44;;;;;;;7.65;3.30;;;;;;;;;;5020801;28;20056;-62
2022/01/22 01:12:12;;;;;;;6.75;3.25;;;;;;;;;;5046638;28;20041;-66
2022/01/22 01:14:50;;;;;;;9.93;3.47;;;;;;;;;;5028994;28;20139;-68
2022/01/22 01:33:55;;;;;;;5.78;3.13;;;;;;;;;;5042171;28;20053;-69
2022/01/22 01:36:22;;;;;;;6.32;2.92;;;;;;;;;;5008228;28;20072;-72
2022/01/22 01:38:53;;;;;;;5.78;2.97;;;;;;;;;;5027023;28;20045;-62
2022/01/22 01:42:10;;;;;;;9.85;3.30;;;;;;;;;;5018059;28;20868;-79
2022/01/22 01:44:07;;;;;;;5.30;2.95;;;;;;;;;;5014863;28;20049;-70
2022/01/22 01:46:34;;;;;;;6.88;2.88;;;;;;;;;;5040853;28;20046;-65
2022/01/22 01:49:02;;;;;;;7.50;3.47;;;;;;;;;;5025928;28;20048;-75
2022/01/22 01:51:31;;;;;;;8.10;3.30;;;;;;;;;;5038011;28;20110;-66
2022/01/22 01:54:07;;;;;;;8.77;3.35;;;;;;;;;;5004673;28;20057;-66
2022/01/22 01:59:19;;;;;;;6.70;3.00;;;;;;;;;;5033942;28;20092;-80
2022/01/22 02:01:45;;;;;;;6.47;3.00;;;;;;;;;;5038416;28;20140;-68
2022/01/22 02:04:13;;;;;;;7.65;3.03;;;;;;;;;;5038154;28;20103;-64
2022/01/22 02:06:40;;;;;;;6.63;3.05;;;;;;;;;;5036996;28;20135;-68
2022/01/22 02:09:08;;;;;;;7.53;2.80;;;;;;;;;;5035275;28;20125;-78
2022/01/22 02:11:37;;;;;;;5.75;2.83;;;;;;;;;;5040412;28;20129;-77
2022/01/22 02:24:52;;;;;;;5.13;2.78;;;;;;;;;;5024438;28;20183;-63
2022/01/22 02:27:19;;;;;;;9.25;2.90;;;;;;;;;;5037384;28;20422;-67
2022/01/22 02:29:46;;;;;;;7.90;3.20;;;;;;;;;;5035595;28;20747;-64
2022/01/22 02:32:47;;;;;;;9.50;3.17;;;;;;;;;;5034079;28;20045;-67
2022/01/22 02:37:51;;;;;;;5.25;2.90;;;;;;;;;;5037133;28;20052;-64
2022/01/22 02:40:25;;;;;;;6.72;2.85;;;;;;;;;;5035597;28;20668;-67
2022/01/22 02:42:52;;;;;;;10.60;3.27;;;;;;;;;;5026922;28;20048;-64
2022/01/22 02:45:21;;;;;;;7.03;3.30;;;;;;;;;;5037295;28;20295;-71
2022/01/22 02:47:47;;;;;;;6.05;3.03;;;;;;;;;;5020141;28;20085;-65
2022/01/22 02:50:15;;;;;;;5.35;2.83;;;;;;;;;;5036188;28;20041;-62
2022/01/22 02:52:42;;;;;;;5.38;2.70;;;;;;;;;;5041051;28;20061;-74
2022/01/22 02:55:11;;;;;;;7.10;2.83;;;;;;;;;;5024435;28;20053;-73
2022/01/22 02:57:41;;;;;;;5.47;2.67;;;;;;;;;;5033449;28;20048;-69
2022/01/22 03:00:12;;;;;;;6.18;2.67;;;;;;;;;;5035390;28;20045;-73
2022/01/22 03:02:39;;;;;;;7.78;2.85;;;;;;;;;;5015288;28;20508;-83
2022/01/22 03:05:06;;;;;;;6.53;2.72;;;;;;;;;;5039570;28;20373;-75
2022/01/22 03:07:35;;;;;;;5.50;2.60;;;;;;;;;;5034977;28;20061;-70
2022/01/22 03:10:04;;;;;;;7.72;2.95;;;;;;;;;;5038962;28;20048;-64
2022/01/22 03:15:33;;;;;;;8.15;2.92;;;;;;;;;;5025078;28;20079;-66
2022/01/22 03:20:58;;;;;;;7.50;3.20;;;;;;;;;;5040858;28;20128;-68
2022/01/22 03:29:08;;;;;;;;;;;;;;;;;;5020687;28;20052;-63
2022/01/22 03:31:35;;;;;;;4.53;2.67;;;;;;;;;;5032658;28;19924;-68
2022/01/22 03:34:01;;;;;;;6.07;2.72;;;;;;;;;;5031118;28;20053;-76
2022/01/22 03:36:29;;;;;;;7.50;2.90;;;;;;;;;;5032770;28;20076;-76
2022/01/22 03:38:56;;;;;;;7.78;3.25;;;;;;;;;;5037601;28;20064;-72
2022/01/22 03:41:23;;;;;;;5.25;2.63;;;;;;;;;;5021579;28;20184;-68
2022/01/22 03:43:53;;;;;;;7.30;3.60;;;;;;;;;;5041594;28;21021;-70
2022/01/22 03:46:21;;;;;;;11.45;3.30;;;;;;;;;;5036581;28;20057;-75
2022/01/22 03:48:48;;;;;;;4.90;2.80;;;;;;;;;;5030831;28;20057;-63
2022/01/22 03:51:14;;;;;;;7.38;2.88;;;;;;;;;;5032098;28;20049;-63
2022/01/22 03:53:41;;;;;;;7.78;2.92;;;;;;;;;;5033490;28;20155;-63
2022/01/22 03:56:09;;;;;;;6.78;3.15;;;;;;;;;;5032124;28;20561;-76
2022/01/22 03:58:41;;;;;;;8.00;2.58;;;;;;;;;;5015775;28;20327;-68
2022/01/22 04:03:42;;;;;;;6.85;2.80;;;;;;;;;;5036946;28;20048;-70
2022/01/22 04:08:58;;;;;;;5.93;2.78;;;;;;;;;;5019436;28;20527;-70
2022/01/22 04:11:24;;;;;;;6.68;2.60;;;;;;;;;;5018440;28;20063;-64
2022/01/22 04:13:53;;;;;;;12.55;3.22;;;;;;;;;;5037169;28;20486;-70
2022/01/22 04:16:20;;;;;;;9.20;2.85;;;;;;;;;;5019290;28;21076;-63
2022/01/22 04:27:13;;;;;;;6.25;2.28;;;;;;;;;;5034512;28;20139;-76
2022/01/22 04:29:41;;;;;;;6.43;2.55;;;;;;;;;;5033532;28;20432;-63
2022/01/22 04:32:07;;;;;;;5.30;2.60;;;;;;;;;;5021419;28;20495;-64
2022/01/22 04:34:33;;;;;;;7.60;2.70;;;;;;;;;;4997423;28;20057;-67
2022/01/22 04:37:00;;;;;;;12.40;2.65;;;;;;;;;;5018791;28;20053;-71
2022/01/22 04:39:27;;;;;;;18.10;2.63;;;;;;;;;;5012937;28;20057;-65
2022/01/22 04:41:56;;;;;;;6.32;2.33;;;;;;;;;;5013526;28;20053;-70
2022/01/22 04:44:26;;;;;;;7.53;2.80;;;;;;;;;;4996847;28;20077;-63
2022/01/22 04:57:15;;;;;;;5.97;2.55;;;;;;;;;;5009997;28;20149;-69
2022/01/22 04:59:41;;;;;;;7.38;2.40;;;;;;;;;;5015318;28;20106;-64
2022/01/22 05:02:07;;;;;;;6.30;2.50;;;;;;;;;;4990170;28;20493;-74
2022/01/22 05:04:33;;;;;;;6.53;2.30;;;;;;;;;;5023318;28;20155;-65
2022/01/22 05:06:59;;;;;;;5.10;2.03;;;;;;;;;;5002464;28;20541;-75
2022/01/22 05:09:25;;;;;;;8.95;2.35;;;;;;;;;;5001110;28;20060;-81
2022/01/22 05:11:51;;;;;;;4.95;2.13;;;;;;;;;;5020390;28;20110;-63
2022/01/22 05:14:18;;;;;;;6.55;2.05;;;;;;;;;;5019106;28;20068;-63
2022/01/22 05:16:44;;;;;;;9.68;2.80;;;;;;;;;;5017356;28;20049;-74
2022/01/22 05:19:16;;;;;;;5.32;2.35;;;;;;;;;;5018217;28;20049;-74
2022/01/22 05:21:44;;;;;;;9.57;2.55;;;;;;;;;;5017127;28;20041;-66
2022/01/22 05:24:15;;;;;;;9.07;2.65;;;;;;;;;;5003280;28;20048;-74
2022/01/22 05:27:15;;;;;;;6.38;2.60;;;;;;;;;;5016412;28;20187;-64
2022/01/22 05:37:53;;;;;;;14.45;4.00;;;;;;;;;;4982462;28;20028;-70
2022/01/22 05:40:20;;;;;;;9.27;2.95;;;;;;;;;;4967030;28;20065;-64
2022/01/22 05:42:46;;;;;;;7.70;3.00;;;;;;;;;;4963748;28;20487;-66
2022/01/22 05:45:12;;;;;;;8.32;3.10;;;;;;;;;;4997923;28;20833;-66
2022/01/22 05:47:38;;;;;;;14.18;2.92;;;;;;;;;;4964585;28;20093;-70
2022/01/22 05:50:10;;;;;;;6.82;2.92;;;;;;;;;;4983542;28;20049;-68
2022/01/22 05:52:50;;;;;;;5.43;2.80;;;;;;;;;;4979135;28;20275;-68
2022/01/22 05:55:41;;;;;;;11.95;3.63;;;;;;;;;;4981418;28;20061;-71
2022/01/22 06:00:52;;;;;;;7.70;3.40;;;;;;;;;;4982600;28;20046;-75
2022/01/22 06:03:19;;;;;;;11.15;3.90;;;;;;;;;;4983247;28;20059;-67
2022/01/22 06:05:44;;;;;;;10.88;4.00;;;;;;;;;;5003057;28;20564;-74
2022/01/22 06:08:15;;;;;;;10.65;3.95;;;;;;;;;;5016964;28;20119;-71
2022/01/22 06:10:45;;;;;;;9.13;3.75;;;;;;;;;;5014813;28;20130;-74
2022/01/22 06:13:15;;;;;;;11.38;4.10;;;;;;;;;;5033243;28;20477;-68
2022/01/22 06:15:42;;;;;;;10.73;3.78;;;;;;;;;;5015345;28;20716;-76
2022/01/22 06:18:08;;;;;;;7.15;3.22;;;;;;;;;;5018118;28;20041;-78
2022/01/22 06:20:34;;;;;;;7.78;3.72;;;;;;;;;;5039632;28;20144;-69
2022/01/22 06:23:01;;;;;;;8.65;3.80;;;;;;;;;;5020791;28;20067;-78
2022/01/22 06:25:27;;;;;;;10.48;3.67;;;;;;;;;;5021571;28;20063;-63
2022/01/22 06:27:53;;;;;;;10.63;3.70;;;;;;;;;;5036819;28;20097;-79
2022/01/22 06:30:20;;;;;;;7.85;3.60;;;;;;;;;;5039078;28;20135;-71
2022/01/22 06:32:46;;;;;;;10.13;3.53;;;;;;;;;;5035757;28;20057;-64
2022/01/22 06:35:13;;;;;;;8.93;3.60;;;;;;;;;;5038858;28;20179;-66
2022/01/22 06:37:39;;;;;;;8.70;3.30;;;;;;;;;;5020579;28;20075;-73
2022/01/22 06:42:34;;;;;;;9.43;3.33;;;;;;;;;;5020200;28;20053;-68
2022/01/22 06:45:03;;;;;;;7.95;3.00;;;;;;;;;;5037460;28;20139;-68
2022/01/22 06:47:30;;;;;;;10.60;3.25;;;;;;;;;;5036211;28;20798;-79
2022/01/22 06:49:56;;;;;;;16.60;3.70;;;;;;;;;;5034734;28;20115;-73
2022/01/22 06:52:23;;;;;;;7.97;2.85;;;;;;;;;;5036043;28;20629;-65
2022/01/22 06:54:49;;;;;;;7.82;2.97;;;;;;;;;;5034947;28;20117;-72
2022/01/22 06:57:15;;;;;;;6.28;3.00;;;;;;;;;;5036660;28;20049;-69
2022/01/22 06:59:41;;;;;;;7.78;2.85;;;;;;;;;;5004146;28;20142;-70
2022/01/22 07:02:09;;;;;;;7.63;3.63;;;;;;;;;;5033952;28;20041;-75
2022/01/22 07:04:37;;;;;;;11.70;3.42;;;;;;;;;;5034106;28;20056;-77
2022/01/22 07:07:05;;;;;;;9.88;3.47;;;;;;;;;;5033858;28;20083;-80
2022/01/22 07:09:32;;;;;;;12.00;3.90;;;;;;;;;;5035098;28;20202;-81
2022/01/22 07:11:58;;;;;;;7.68;3.13;;;;;;;;;;5013867;28;20125;-79
2022/01/22 07:14:26;;;;;;;6.80;3.00;;;;;;;;;;5040301;28;20053;-65
2022/01/22 07:16:52;;;;;;;6.43;2.75;;;;;;;;;;5019502;28;20045;-63
2022/01/22 07:19:20;;;;;;;9.48;2.67;;;;;;;;;;5035444;28;20052;-68
2022/01/22 07:22:06;;;;;;;6.70;2.67;;;;;;;;;;5038355;28;20077;-65
2022/01/22 07:24:40;;;;;;;8.68;2.70;;;;;;;;;;5024852;28;20072;-74
2022/01/22 07:27:06;;;;;;;10.40;2.95;;;;;;;;;;5023572;28;20142;-69
2022/01/22 07:29:32;;;;;;;5.55;2.53;;;;;;;;;;5025679;28;20076;-68
2022/01/22 07:32:04;;;;;;;7.50;3.13;;;;;;;;;;5040652;28;20099;-73
2022/01/22 07:34:30;;;;;;;9.15;2.78;;;;;;;;;;5037301;28;20067;-73
2022/01/22 07:37:02;;;;;;;11.60;3.35;;;;;;;;;;5040764;28;20162;-78
2022/01/22 07:39:28;;;;;;;8.45;3.03;;;;;;;;;;5006359;28;20134;-71
2022/01/22 07:41:54;;;;;;;9.55;2.95;;;;;;;;;;5022562;28;20152;-65
2022/01/22 07:44:20;;;;;;;7.53;2.80;;;;;;;;;;5037539;28;20806;-64
2022/01/22 07:46:46;;;;;;;10.35;2.88;;;;;;;;;;5002956;28;20045;-77
2022/01/22 07:49:19;;;;;;;5.97;3.42;;;;;;;;;;5033048;28;20421;-70
2022/01/22 07:51:45;;;;;;;8.07;2.80;;;;;;;;;;5043287;28;20064;-66
2022/01/22 07:54:11;;;;;;;8.25;3.63;;;;;;;;;;5040028;28;20096;-64
2022/01/22 07:56:37;;;;;;;9.73;3.50;;;;;;;;;;5036591;28;20133;-74
2022/01/22 07:59:03;;;;;;;8.57;3.13;;;;;;;;;;5041433;28;20128;-76
2022/01/22 08:01:29;;;;;;;8.60;3.42;;;;;;;;;;5039989;28;20112;-65
2022/01/22 08:03:55;;;;;;;5.90;3.50;;;;;;;;;;5046222;28;20053;-64
2022/01/22 08:06:22;;;;;;;12.38;4.70;;;;;;;;;;5034734;28;20071;-66
2022/01/22 08:08:48;;;;;;;9.02;3.80;;;;;;;;;;5017472;28;20056;-68
2022/01/22 08:11:14;;;;;;;15.00;6.50;;;;;;;;;;5018870;28;20052;-69
2022/01/22 08:13:40;;;;;;;14.70;7.93;;;;;;;;;;5036898;28;20114;-76
2022/01/22 08:16:06;;;;;;;20.90;6.80;;;;;;;;;;5044195;28;20425;-73
2022/01/22 08:18:32;;;;;;;13.30;7.15;;;;;;;;;;5035943;28;20051;-72
2022/01/22 08:20:59;;;;;;;15.13;6.57;;;;;;;;;;5040161;28;20083;-72
2022/01/22 08:23:25;;;;;;;18.15;6.65;;;;;;;;;;5047344;28;20085;-67
2022/01/22 08:25:52;;;;;;;14.68;5.93;;;;;;;;;;5045541;28;20056;-67
2022/01/22 08:31:15;;;;;;;16.27;5.55;;;;;;;;;;5028938;28;20375;-67
2022/01/22 08:36:42;;;;;;;8.73;4.95;;;;;;;;;;4960589;28;20514;-74
2022/01/22 08:39:09;;;;;;;14.07;4.35;;;;;;;;;;4965889;28;20492;-66
2022/01/22 08:41:35;;;;;;;12.10;4.80;;;;;;;;;;4980555;28;20304;-68
2022/01/22 08:44:03;;;;;;;11.73;4.70;;;;;;;;;;4965374;28;20200;-67
2022/01/22 08:46:30;;;;;;;7.97;3.90;;;;;;;;;;4964956;28;20125;-68
2022/01/22 08:48:56;;;;;;;8.90;4.22;;;;;;;;;;4982976;28;20069;-76
2022/01/22 08:51:22;;;;;;;13.02;5.07;;;;;;;;;;4980863;28;20772;-66
2022/01/22 08:53:49;;;;;;;12.27;5.03;;;;;;;;;;4977657;28;20074;-67
2022/01/22 08:56:16;;;;;;;9.77;5.18;;;;;;;;;;4977579;28;20054;-74
2022/01/22 08:58:43;;;;;;;9.48;5.40;;;;;;;;;;4958608;28;20055;-76
2022/01/22 09:01:10;;;;;;;11.05;5.50;;;;;;;;;;4979057;28;20051;-69
2022/01/22 09:03:37;;;;;;;15.70;6.90;;;;;;;;;;4960011;28;20142;-73
2022/01/22 09:06:05;;;;;;;10.43;6.95;;;;;;;;;;4998682;28;20046;-69
2022/01/22 09:08:31;;;;;;;13.48;7.18;;;;;;;;;;4985305;28;20073;-72
2022/01/22 09:10:58;;;;;;;15.77;7.60;;;;;;;;;;4987469;28;20054;-68
2022/01/22 09:13:25;;;;;;;12.88;7.22;;;;;;;;;;5037219;28;20565;-68
2022/01/22 09:15:54;;;;;;;12.63;8.23;;;;;;;;;;5041019;28;20049;-69
2022/01/22 09:18:20;;;;;;;15.20;8.27;;;;;;;;;;5045090;28;20052;-69
2022/01/22 09:23:15;;;;;;;15.73;8.15;;;;;;;;;;5051837;28;20045;-81
2022/01/22 09:25:42;;;;;;;15.27;8.20;;;;;;;;;;5009461;28;20060;-78
2022/01/22 09:28:11;;;;;;;18.27;8.55;;;;;;;;;;5043026;28;20087;-74
2022/01/22 09:30:38;;;;;;;16.52;9.27;;;;;;;;;;5023707;28;20044;-83
2022/01/22 09:33:05;;;;;;;14.50;8.38;;;;;;;;;;5022764;28;20053;-69
2022/01/22 09:35:32;;;;;;;14.15;9.32;;;;;;;;;;5034508;28;20045;-70
2022/01/22 09:37:58;;;;;;;14.07;7.95;;;;;;;;;;5024962;28;20049;-69
2022/01/22 09:40:26;;;;;;;17.17;8.13;;;;;;;;;;5053506;28;20052;-68
2022/01/22 09:42:52;;;;;;;16.13;8.70;;;;;;;;;;5040916;28;20076;-69
2022/01/22 09:45:19;;;;;;;12.10;7.43;;;;;;;;;;5022432;28;20042;-68
2022/01/22 09:47:47;;;;;;;11.93;7.38;;;;;;;;;;5027942;28;20045;-68
2022/01/22 09:50:16;;;;;;;13.45;8.23;;;;;;;;;;5050378;28;20107;-73
2022/01/22 09:52:44;;;;;;;13.23;7.85;;;;;;;;;;5041069;28;20053;-69
2022/01/22 09:55:10;;;;;;;12.27;6.97;;;;;;;;;;5045149;28;20041;-75
2022/01/22 09:57:37;;;;;;;16.65;9.13;;;;;;;;;;5041778;28;20078;-75
2022/01/22 10:00:14;;;;;;;14.07;7.38;;;;;;;;;;5031604;28;20140;-75
2022/01/22 10:02:51;;;;;;;17.38;8.20;;;;;;;;;;5040069;28;20132;-74
2022/01/22 10:05:38;;;;;;;17.08;7.97;;;;;;;;;;5018864;28;20044;-68
2022/01/22 10:08:32;;;;;;;14.43;8.00;;;;;;;;;;5027778;28;20057;-73
2022/01/22 10:11:00;;;;;;;12.57;8.13;;;;;;;;;;5030054;28;20440;-74
2022/01/22 10:13:44;;;;;;;14.43;7.97;;;;;;;;;;5047106;28;20085;-68
2022/01/22 10:16:13;;;;;;;15.35;6.63;;;;;;;;;;5046217;28;20083;-70
2022/01/22 10:18:39;;;;;;;12.27;6.28;;;;;;;;;;5047417;28;20056;-74
2022/01/22 10:21:14;;;;;;;11.07;6.57;;;;;;;;;;5045992;28;20140;-70
2022/01/22 10:23:41;;;;;;;11.55;6.80;;;;;;;;;;5044325;28;20505;-71
2022/01/22 10:26:12;;;;;;;18.17;8.30;;;;;;;;;;5043363;28;20466;-70
2022/01/22 10:28:50;;;;;;;14.63;7.35;;;;;;;;;;5026114;28;20152;-72
2022/01/22 10:31:23;;;;;;;12.00;6.55;;;;;;;;;;5047189;28;20053;-68
2022/01/22 10:34:12;;;;;;;14.23;6.47;;;;;;;;;;5034846;28;20045;-73
2022/01/22 10:36:39;;;;;;;15.73;7.10;;;;;;;;;;5027898;28;20053;-83
2022/01/22 10:39:21;;;;;;;8.82;4.68;;;;;;;;;;5019975;28;20061;-69
2022/01/22 10:41:47;;;;;;;9.98;4.93;;;;;;;;;;5047683;28;20056;-68
2022/01/22 10:44:19;;;;;;;13.35;5.68;;;;;;;;;;5034226;28;20049;-74
2022/01/22 10:46:50;;;;;;;12.35;5.32;;;;;;;;;;5020582;28;20051;-69
2022/01/22 10:49:26;;;;;;;13.68;5.10;;;;;;;;;;5034889;28;20053;-77
2022/01/22 10:51:56;;;;;;;10.50;5.13;;;;;;;;;;5038711;28;20044;-72
2022/01/22 10:54:24;;;;;;;11.75;5.15;;;;;;;;;;5019684;28;20061;-79
2022/01/22 10:56:52;;;;;;;7.82;4.13;;;;;;;;;;5023332;28;20186;-69
2022/01/22 10:59:20;;;;;;;9.65;4.95;;;;;;;;;;5028292;28;20041;-68
2022/01/22 11:01:56;;;;;;;10.20;4.60;;;;;;;;;;5045395;28;20116;-74
2022/01/22 11:04:27;;;;;;;10.05;4.88;;;;;;;;;;5044229;28;20523;-67
2022/01/22 11:07:06;;;;;;;8.95;4.57;;;;;;;;;;5021169;28;20054;-74
2022/01/22 11:09:34;;;;;;;12.25;5.13;;;;;;;;;;5028457;28;20063;-67
2022/01/22 11:12:03;;;;;;;10.02;4.72;;;;;;;;;;5022088;28;20050;-69
2022/01/22 11:14:34;;;;;;;12.02;4.95;;;;;;;;;;5059346;28;20084;-68
2022/01/22 11:17:01;;;;;;;11.60;4.70;;;;;;;;;;5023440;28;20085;-68
2022/01/22 11:19:32;;;;;;;12.98;5.75;;;;;;;;;;5037943;28;20045;-67
2022/01/22 11:22:03;;;;;;;12.68;4.95;;;;;;;;;;5031509;28;20051;-68
2022/01/22 11:24:34;;;;;;;17.60;5.07;;;;;;;;;;5039214;28;20153;-69
2022/01/22 11:27:02;;;;;;;9.80;4.70;;;;;;;;;;5042910;28;20048;-72
2022/01/22 11:29:41;;;;;;;13.27;4.45;;;;;;;;;;5004781;28;20202;-72
2022/01/22 11:32:11;;;;;;;12.95;4.20;;;;;;;;;;5046111;28;20096;-73
2022/01/22 11:34:40;;;;;;;11.73;4.05;;;;;;;;;;5044903;28;20041;-68
2022/01/22 11:37:39;;;;;;;14.35;4.30;;;;;;;;;;5026929;28;20387;-81
2022/01/22 11:40:23;;;;;;;8.80;3.22;;;;;;;;;;5032219;28;20046;-71
2022/01/22 11:43:12;;;;;;;11.20;3.78;;;;;;;;;;5040276;28;20041;-68
2022/01/22 11:45:44;;;;;;;9.48;3.40;;;;;;;;;;5042936;28;20052;-68
2022/01/22 11:48:16;;;;;;;7.53;3.55;;;;;;;;;;5038366;28;20060;-79
2022/01/22 11:50:51;;;;;;;11.32;3.78;;;;;;;;;;5041648;28;20547;-74
2022/01/22 11:53:29;;;;;;;11.05;3.63;;;;;;;;;;5040263;28;20409;-71
2022/01/22 11:56:10;;;;;;;8.98;3.80;;;;;;;;;;5041464;28;20053;-71
2022/01/22 11:58:55;;;;;;;13.40;3.92;;;;;;;;;;5021781;28;20068;-70
2022/01/22 12:04:17;;;;;;;10.95;3.97;;;;;;;;;;5021500;28;20099;-77
2022/01/22 12:07:02;;;;;;;14.63;3.97;;;;;;;;;;5015981;28;20079;-74
2022/01/22 12:09:50;;;;;;;;;;;;;;;;;;5028934;28;20053;-73
2022/01/22 12:15:30;;;;;;;6.93;3.25;;;;;;;;;;5035515;28;20072;-71
2022/01/22 12:18:19;;;;;;;12.52;4.40;;;;;;;;;;5005347;28;20053;-72
2022/01/22 12:23:42;;;;;;;5.90;3.33;;;;;;;;;;5033622;28;20131;-73
2022/01/22 12:26:08;;;;;;;18.70;3.88;;;;;;;;;;5011777;28;20053;-77
2022/01/22 12:28:40;;;;;;;5.28;2.78;;;;;;;;;;5030572;28;20061;-74
2022/01/22 12:31:14;;;;;;;9.43;3.20;;;;;;;;;;5031883;28;20061;-73
2022/01/22 12:33:41;;;;;;;11.45;3.15;;;;;;;;;;5031322;28;20053;-79
2022/01/22 12:36:18;;;;;;;6.63;2.75;;;;;;;;;;5013489;28;20056;-81
2022/01/22 12:38:57;;;;;;;10.43;3.35;;;;;;;;;;5004300;28;20049;-82
2022/01/22 12:41:36;;;;;;;8.13;3.03;;;;;;;;;;5020589;28;20088;-74
2022/01/22 12:44:33;;;;;;;8.43;3.45;;;;;;;;;;5038333;28;20163;-73
2022/01/22 12:47:02;;;;;;;6.32;2.63;;;;;;;;;;5008415;28;20072;-75
2022/01/22 12:49:36;;;;;;;6.53;2.50;;;;;;;;;;5045599;28;20530;-71
2022/01/22 12:52:06;;;;;;;13.77;3.25;;;;;;;;;;5034629;28;20107;-72
2022/01/22 12:54:40;;;;;;;8.60;2.88;;;;;;;;;;5024994;28;20418;-72
2022/01/22 12:57:14;;;;;;;11.18;3.38;;;;;;;;;;5039234;28;20057;-81
2022/01/22 13:00:05;;;;;;;4.38;2.50;;;;;;;;;;5025182;28;20072;-76
2022/01/22 13:02:50;;;;;;;6.40;2.78;;;;;;;;;;5043767;28;20117;-71
2022/01/22 13:05:19;;;;;;;7.25;3.00;;;;;;;;;;5044028;28;20106;-72
2022/01/22 13:07:54;;;;;;;9.52;2.42;;;;;;;;;;5022229;28;20051;-71
2022/01/22 13:10:25;;;;;;;13.95;4.70;;;;;;;;;;5039881;28;20049;-70
2022/01/22 13:12:53;;;;;;;10.82;3.05;;;;;;;;;;5034923;28;20049;-73
2022/01/22 13:15:20;;;;;;;6.63;3.05;;;;;;;;;;5039699;28;20448;-72
2022/01/22 13:17:54;;;;;;;8.75;2.90;;;;;;;;;;5038485;28;20056;-80
2022/01/22 13:20:26;;;;;;;10.65;2.95;;;;;;;;;;5037658;28;20075;-71
2022/01/22 13:22:53;;;;;;;8.73;2.55;;;;;;;;;;5039488;28;20052;-71
2022/01/22 13:25:20;;;;;;;5.70;2.95;;;;;;;;;;5041290;28;20053;-73
2022/01/22 13:28:13;;;;;;;11.23;3.65;;;;;;;;;;5039939;28;20049;-75
2022/01/22 13:30:48;;;;;;;6.95;3.30;;;;;;;;;;5018148;28;20102;-77
2022/01/22 13:33:34;;;;;;;5.25;3.03;;;;;;;;;;5022538;28;20041;-72
2022/01/22 13:36:32;;;;;;;9.38;3.00;;;;;;;;;;5041271;28;20085;-77
2022/01/22 13:49:52;;;;;;;12.13;3.80;;;;;;;;;;5008463;28;20052;-71
2022/01/22 13:52:21;;;;;;;8.00;3.95;;;;;;;;;;5023021;28;20513;-81
2022/01/22 13:54:50;;;;;;;11.13;3.65;;;;;;;;;;5000714;28;20132;-84
2022/01/22 13:57:26;;;;;;;16.45;5.10;;;;;;;;;;4989064;28;20065;-79
2022/01/22 13:59:55;;;;;;;6.78;3.20;;;;;;;;;;5024606;28;20079;-73
2022/01/22 14:04:59;;;;;;;8.60;2.90;;;;;;;;;;5035286;28;20563;-78
2022/01/22 14:07:31;;;;;;;6.78;2.83;;;;;;;;;;5011139;28;20053;-73
2022/01/22 14:10:01;;;;;;;9.07;2.70;;;;;;;;;;5040329;28;20053;-73
2022/01/22 14:12:38;;;;;;;7.80;2.70;;;;;;;;;;5036899;28;20128;-77
2022/01/22 14:15:28;;;;;;;10.43;3.15;;;;;;;;;;5042174;28;20939;-72
2022/01/22 14:20:40;;;;;;;8.18;2.08;;;;;;;;;;5035609;28;20207;-78
2022/01/22 14:23:16;;;;;;;5.97;2.00;;;;;;;;;;5019924;28;20067;-81
2022/01/22 14:25:58;;;;;;;8.52;2.25;;;;;;;;;;5054135;28;20108;-76
2022/01/22 14:28:46;;;;;;;4.38;2.10;;;;;;;;;;5011708;28;20045;-71
2022/01/22 14:31:23;;;;;;;14.40;6.22;;;;;;;;;;5015952;28;20053;-70
2022/01/22 14:33:49;;;;;;;8.82;2.63;;;;;;;;;;5003848;28;20075;-71
2022/01/22 14:36:19;;;;;;;6.47;2.15;;;;;;;;;;5030108;28;20053;-73
2022/01/22 14:38:52;;;;;;;5.38;2.08;;;;;;;;;;5011734;28;20043;-78
2022/01/22 14:44:25;;;;;;;9.80;2.55;;;;;;;;;;5033378;28;20053;-76
2022/01/22 14:46:59;;;;;;;8.73;2.53;;;;;;;;;;5031820;28;20053;-72
2022/01/22 14:49:29;;;;;;;4.10;2.10;;;;;;;;;;5017193;28;20064;-76
2022/01/22 14:51:56;;;;;;;7.82;2.60;;;;;;;;;;5033085;28;20522;-73
2022/01/22 14:54:25;;;;;;;10.02;1.95;;;;;;;;;;5033513;28;20128;-73
2022/01/22 14:56:51;;;;;;;5.47;1.50;;;;;;;;;;5032323;28;20266;-76
2022/01/22 14:59:19;;;;;;;4.78;1.80;;;;;;;;;;5017117;28;20049;-72
2022/01/22 15:01:45;;;;;;;3.25;1.80;;;;;;;;;;5019522;28;20165;-71
2022/01/22 15:04:12;;;;;;;4.90;1.50;;;;;;;;;;4997328;28;20060;-77
2022/01/22 15:06:38;;;;;;;10.15;3.90;;;;;;;;;;5024313;28;20106;-79
2022/01/22 15:09:05;;;;;;;7.90;2.20;;;;;;;;;;5000513;28;20333;-77
2022/01/22 15:11:34;;;;;;;5.10;1.90;;;;;;;;;;5011430;28;20061;-72
2022/01/22 15:14:05;;;;;;;8.45;2.45;;;;;;;;;;5032393;28;20042;-78
2022/01/22 15:17:03;;;;;;;8.57;2.70;;;;;;;;;;5012241;28;20049;-78
2022/01/22 15:19:23;;;;;;;4.78;2.30;;;;;;;;;;5031184;28;20098;-72
2022/01/22 15:21:50;;;;;;;7.22;2.78;;;;;;;;;;5016302;28;20041;-74
2022/01/22 15:24:17;;;;;;;4.20;1.92;;;;;;;;;;5016446;28;20992;-78
2022/01/22 15:26:45;;;;;;;7.28;2.40;;;;;;;;;;5001351;28;20045;-77
2022/01/22 15:29:15;;;;;;;5.45;2.00;;;;;;;;;;5039742;28;20049;-75
2022/01/22 15:32:04;;;;;;;5.65;1.90;;;;;;;;;;5016996;28;20056;-70
2022/01/22 15:37:02;;;;;;;4.75;2.30;;;;;;;;;;5030699;28;20064;-67
2022/01/22 15:39:29;;;;;;;4.40;1.80;;;;;;;;;;5032617;28;20864;-69
2022/01/22 15:41:58;;;;;;;4.57;1.88;;;;;;;;;;5018468;28;20099;-71
2022/01/22 15:44:25;;;;;;;5.97;2.00;;;;;;;;;;5013390;28;20060;-74
2022/01/22 15:46:51;;;;;;;4.40;1.58;;;;;;;;;;5029502;28;20171;-75
2022/01/22 15:49:21;;;;;;;6.20;1.70;;;;;;;;;;5009178;28;20102;-75
2022/01/22 15:51:53;;;;;;;5.05;1.67;;;;;;;;;;5031769;28;20491;-74
2022/01/22 15:54:19;;;;;;;4.78;1.90;;;;;;;;;;5012884;28;20049;-73
2022/01/22 15:56:46;;;;;;;5.97;1.75;;;;;;;;;;5016381;28;20041;-74
2022/01/22 15:59:15;;;;;;;5.57;2.00;;;;;;;;;;5029460;28;20075;-76
2022/01/22 16:01:44;;;;;;;4.72;1.58;;;;;;;;;;4988689;28;20055;-75
2022/01/22 16:04:11;;;;;;;3.70;1.80;;;;;;;;;;5028944;28;20049;-77
2022/01/22 16:09:23;;;;;;;5.55;1.77;;;;;;;;;;5028822;28;20071;-79
2022/01/22 16:11:49;;;;;;;9.20;2.15;;;;;;;;;;5028750;28;20045;-72
2022/01/22 16:14:16;;;;;;;4.88;1.80;;;;;;;;;;5033866;28;20052;-77
2022/01/22 16:16:46;;;;;;;5.28;1.65;;;;;;;;;;5013484;28;20045;-77
2022/01/22 16:19:14;;;;;;;5.10;1.73;;;;;;;;;;5031402;28;20065;-72
2022/01/22 16:21:42;;;;;;;10.23;1.95;;;;;;;;;;5030710;28;20053;-75
2022/01/22 16:24:10;;;;;;;7.38;1.73;;;;;;;;;;5032720;28;20350;-78
2022/01/22 16:26:37;;;;;;;11.15;1.88;;;;;;;;;;5012673;28;20065;-77
2022/01/22 16:29:04;;;;;;;6.07;1.80;;;;;;;;;;4996456;28;20494;-74
2022/01/22 16:31:31;;;;;;;15.43;6.35;;;;;;;;;;5033646;28;20136;-74
2022/01/22 16:34:03;;;;;;;8.70;1.80;;;;;;;;;;5025587;28;20143;-71
2022/01/22 16:36:29;;;;;;;6.22;1.90;;;;;;;;;;5029579;28;20056;-72
2022/01/22 16:38:57;;;;;;;6.00;2.30;;;;;;;;;;5032013;28;20049;-70
2022/01/22 16:41:24;;;;;;;11.57;2.25;;;;;;;;;;5012086;28;20477;-71
2022/01/22 16:43:58;;;;;;;6.85;2.00;;;;;;;;;;5030127;28;20417;-72
2022/01/22 16:46:31;;;;;;;8.02;2.00;;;;;;;;;;5026858;28;20042;-74
2022/01/22 16:56:51;;;;;;;12.05;2.53;;;;;;;;;;5031639;28;20426;-75
2022/01/22 16:59:21;;;;;;;8.25;1.80;;;;;;;;;;5018417;28;20103;-74
2022/01/22 17:01:50;;;;;;;6.60;2.10;;;;;;;;;;5039713;28;20057;-73
2022/01/22 17:04:22;;;;;;;13.30;3.22;;;;;;;;;;5014832;28;20329;-76
2022/01/22 17:06:52;;;;;;;13.95;2.80;;;;;;;;;;5014922;28;20063;-73
2022/01/22 17:14:42;;;;;;;11.48;2.58;;;;;;;;;;5019142;28;20049;-76